sensor_id;sensor_type;location;lat;lon;timestamp;P1;durP1;ratioP1;P2;durP2;ratioP2
2416;SDS011;1219;48.736;9.330;2022-09-06T00:02:10;4.80;;;4.43;;
2416;SDS011;1219;48.736;9.330;2022-09-06T00:04:36;5.43;;;5.00;;
2416;SDS011;1219;48.736;9.330;2022-09-06T00:07:02;4.63;;;4.17;;
2416;SDS011;1219;48.736;9.330;2022-09-06T00:09:29;4.37;;;4.07;;
2416;SDS011;1219;48.736;9.330;2022-09-06T00:11:55;4.67;;;4.10;;
2416;SDS011;1219;48.736;9.330;2022-09-06T00:14:21;4.27;;;3.90;;
2416;SDS011;1219;48.736;9.330;2022-09-06T00:16:47;6.73;;;5.00;;
2416;SDS011;1219;48.736;9.330;2022-09-06T00:19:13;4.33;;;4.00;;
2416;SDS011;1219;48.736;9.330;2022-09-06T00:21:39;5.23;;;4.70;;
2416;SDS011;1219;48.736;9.330;2022-09-06T00:24:05;4.13;;;3.73;;
2416;SDS011;1219;48.736;9.330;2022-09-06T00:26:31;4.33;;;4.03;;
2416;SDS011;1219;48.736;9.330;2022-09-06T00:28:57;4.73;;;4.33;;
2416;SDS011;1219;48.736;9.330;2022-09-06T00:31:23;12.07;;;4.73;;
2416;SDS011;1219;48.736;9.330;2022-09-06T00:33:49;4.63;;;4.23;;
2416;SDS011;1219;48.736;9.330;2022-09-06T00:36:15;4.37;;;4.07;;
2416;SDS011;1219;48.736;9.330;2022-09-06T00:38:41;4.83;;;4.33;;
2416;SDS011;1219;48.736;9.330;2022-09-06T00:41:08;4.10;;;3.80;;
2416;SDS011;1219;48.736;9.330;2022-09-06T00:43:34;3.90;;;3.60;;
2416;SDS011;1219;48.736;9.330;2022-09-06T00:46:01;4.87;;;4.47;;
2416;SDS011;1219;48.736;9.330;2022-09-06T00:48:27;4.50;;;4.10;;
2416;SDS011;1219;48.736;9.330;2022-09-06T00:50:55;4.17;;;3.90;;
2416;SDS011;1219;48.736;9.330;2022-09-06T00:53:22;4.43;;;4.10;;
2416;SDS011;1219;48.736;9.330;2022-09-06T00:55:48;5.43;;;4.60;;
2416;SDS011;1219;48.736;9.330;2022-09-06T00:58:14;4.80;;;4.50;;
2416;SDS011;1219;48.736;9.330;2022-09-06T01:00:41;4.70;;;4.40;;
2416;SDS011;1219;48.736;9.330;2022-09-06T01:03:09;5.80;;;5.30;;
2416;SDS011;1219;48.736;9.330;2022-09-06T01:05:48;4.50;;;4.20;;
2416;SDS011;1219;48.736;9.330;2022-09-06T01:08:21;5.57;;;5.17;;
2416;SDS011;1219;48.736;9.330;2022-09-06T01:15:00;6.10;;;4.70;;
2416;SDS011;1219;48.736;9.330;2022-09-06T01:19:26;5.50;;;5.10;;
2416;SDS011;1219;48.736;9.330;2022-09-06T01:22:00;5.83;;;5.33;;
2416;SDS011;1219;48.736;9.330;2022-09-06T01:24:32;5.77;;;5.10;;
2416;SDS011;1219;48.736;9.330;2022-09-06T01:29:57;6.10;;;5.70;;
2416;SDS011;1219;48.736;9.330;2022-09-06T01:35:10;5.03;;;4.50;;
2416;SDS011;1219;48.736;9.330;2022-09-06T01:37:40;5.30;;;4.80;;
2416;SDS011;1219;48.736;9.330;2022-09-06T01:40:06;4.73;;;4.40;;
2416;SDS011;1219;48.736;9.330;2022-09-06T01:42:32;5.43;;;4.97;;
2416;SDS011;1219;48.736;9.330;2022-09-06T01:45:00;4.67;;;4.07;;
2416;SDS011;1219;48.736;9.330;2022-09-06T01:47:35;5.13;;;4.73;;
2416;SDS011;1219;48.736;9.330;2022-09-06T01:55:31;4.63;;;4.33;;
2416;SDS011;1219;48.736;9.330;2022-09-06T01:58:14;5.83;;;4.73;;
2416;SDS011;1219;48.736;9.330;2022-09-06T02:00:53;5.40;;;5.00;;
2416;SDS011;1219;48.736;9.330;2022-09-06T02:03:24;6.47;;;4.80;;
2416;SDS011;1219;48.736;9.330;2022-09-06T02:05:53;5.40;;;4.97;;
2416;SDS011;1219;48.736;9.330;2022-09-06T02:08:34;5.40;;;4.70;;
2416;SDS011;1219;48.736;9.330;2022-09-06T02:11:02;4.90;;;4.50;;
2416;SDS011;1219;48.736;9.330;2022-09-06T02:13:30;5.93;;;4.50;;
2416;SDS011;1219;48.736;9.330;2022-09-06T02:15:58;4.90;;;4.50;;
2416;SDS011;1219;48.736;9.330;2022-09-06T02:18:28;5.63;;;5.13;;
2416;SDS011;1219;48.736;9.330;2022-09-06T02:20:56;7.97;;;5.23;;
2416;SDS011;1219;48.736;9.330;2022-09-06T02:23:23;5.10;;;4.60;;
2416;SDS011;1219;48.736;9.330;2022-09-06T02:25:51;5.03;;;4.70;;
2416;SDS011;1219;48.736;9.330;2022-09-06T02:28:18;5.87;;;5.20;;
2416;SDS011;1219;48.736;9.330;2022-09-06T02:30:45;5.33;;;4.90;;
2416;SDS011;1219;48.736;9.330;2022-09-06T02:33:15;5.03;;;4.70;;
2416;SDS011;1219;48.736;9.330;2022-09-06T02:35:50;5.93;;;5.33;;
2416;SDS011;1219;48.736;9.330;2022-09-06T02:38:16;6.97;;;6.30;;
2416;SDS011;1219;48.736;9.330;2022-09-06T02:40:43;8.80;;;5.97;;
2416;SDS011;1219;48.736;9.330;2022-09-06T02:43:09;6.17;;;5.57;;
2416;SDS011;1219;48.736;9.330;2022-09-06T02:45:35;6.67;;;5.63;;
2416;SDS011;1219;48.736;9.330;2022-09-06T02:48:01;5.37;;;4.87;;
2416;SDS011;1219;48.736;9.330;2022-09-06T02:50:27;5.80;;;5.30;;
2416;SDS011;1219;48.736;9.330;2022-09-06T02:53:03;5.80;;;5.30;;
2416;SDS011;1219;48.736;9.330;2022-09-06T02:55:29;8.43;;;5.57;;
2416;SDS011;1219;48.736;9.330;2022-09-06T02:57:55;5.80;;;5.10;;
2416;SDS011;1219;48.736;9.330;2022-09-06T03:00:22;5.37;;;4.50;;
2416;SDS011;1219;48.736;9.330;2022-09-06T03:02:48;5.37;;;4.63;;
2416;SDS011;1219;48.736;9.330;2022-09-06T03:05:14;6.00;;;5.27;;
2416;SDS011;1219;48.736;9.330;2022-09-06T03:07:40;5.33;;;4.93;;
2416;SDS011;1219;48.736;9.330;2022-09-06T03:10:06;4.67;;;4.33;;
2416;SDS011;1219;48.736;9.330;2022-09-06T03:12:32;5.20;;;4.80;;
2416;SDS011;1219;48.736;9.330;2022-09-06T03:14:58;5.33;;;4.63;;
2416;SDS011;1219;48.736;9.330;2022-09-06T03:17:24;7.13;;;5.37;;
2416;SDS011;1219;48.736;9.330;2022-09-06T03:19:49;8.23;;;5.23;;
2416;SDS011;1219;48.736;9.330;2022-09-06T03:22:16;5.17;;;4.87;;
2416;SDS011;1219;48.736;9.330;2022-09-06T03:24:42;4.90;;;4.60;;
2416;SDS011;1219;48.736;9.330;2022-09-06T03:27:08;6.00;;;5.40;;
2416;SDS011;1219;48.736;9.330;2022-09-06T03:29:33;5.97;;;5.43;;
2416;SDS011;1219;48.736;9.330;2022-09-06T03:32:00;6.67;;;6.00;;
2416;SDS011;1219;48.736;9.330;2022-09-06T03:34:26;6.10;;;5.50;;
2416;SDS011;1219;48.736;9.330;2022-09-06T03:36:52;6.30;;;5.80;;
2416;SDS011;1219;48.736;9.330;2022-09-06T03:39:18;6.57;;;6.03;;
2416;SDS011;1219;48.736;9.330;2022-09-06T03:41:45;6.47;;;5.87;;
2416;SDS011;1219;48.736;9.330;2022-09-06T03:44:11;6.60;;;6.03;;
2416;SDS011;1219;48.736;9.330;2022-09-06T03:46:37;7.30;;;6.60;;
2416;SDS011;1219;48.736;9.330;2022-09-06T03:49:03;6.57;;;5.50;;
2416;SDS011;1219;48.736;9.330;2022-09-06T03:51:29;9.00;;;7.33;;
2416;SDS011;1219;48.736;9.330;2022-09-06T03:53:55;7.33;;;6.53;;
2416;SDS011;1219;48.736;9.330;2022-09-06T03:56:21;7.30;;;6.60;;
2416;SDS011;1219;48.736;9.330;2022-09-06T03:58:47;6.70;;;6.10;;
2416;SDS011;1219;48.736;9.330;2022-09-06T04:01:13;10.83;;;6.87;;
2416;SDS011;1219;48.736;9.330;2022-09-06T04:03:39;7.23;;;6.53;;
2416;SDS011;1219;48.736;9.330;2022-09-06T04:06:05;8.63;;;6.50;;
2416;SDS011;1219;48.736;9.330;2022-09-06T04:08:32;7.57;;;6.70;;
2416;SDS011;1219;48.736;9.330;2022-09-06T04:10:58;6.33;;;5.83;;
2416;SDS011;1219;48.736;9.330;2022-09-06T04:13:25;7.50;;;6.80;;
2416;SDS011;1219;48.736;9.330;2022-09-06T04:15:51;7.80;;;7.20;;
2416;SDS011;1219;48.736;9.330;2022-09-06T04:18:17;7.40;;;6.70;;
2416;SDS011;1219;48.736;9.330;2022-09-06T04:20:44;9.37;;;7.37;;
2416;SDS011;1219;48.736;9.330;2022-09-06T04:23:10;8.30;;;7.47;;
2416;SDS011;1219;48.736;9.330;2022-09-06T04:25:36;9.07;;;7.83;;
2416;SDS011;1219;48.736;9.330;2022-09-06T04:28:01;7.73;;;7.00;;
2416;SDS011;1219;48.736;9.330;2022-09-06T04:30:27;9.00;;;7.57;;
2416;SDS011;1219;48.736;9.330;2022-09-06T04:32:53;11.23;;;7.63;;
2416;SDS011;1219;48.736;9.330;2022-09-06T04:35:19;10.30;;;6.67;;
2416;SDS011;1219;48.736;9.330;2022-09-06T04:37:45;7.63;;;6.77;;
2416;SDS011;1219;48.736;9.330;2022-09-06T04:40:11;9.17;;;8.27;;
2416;SDS011;1219;48.736;9.330;2022-09-06T04:42:37;8.10;;;7.30;;
2416;SDS011;1219;48.736;9.330;2022-09-06T04:45:03;7.70;;;7.10;;
2416;SDS011;1219;48.736;9.330;2022-09-06T04:47:30;7.83;;;6.97;;
2416;SDS011;1219;48.736;9.330;2022-09-06T04:49:56;12.83;;;8.93;;
2416;SDS011;1219;48.736;9.330;2022-09-06T04:52:22;10.53;;;8.30;;
2416;SDS011;1219;48.736;9.330;2022-09-06T04:54:48;8.97;;;7.70;;
2416;SDS011;1219;48.736;9.330;2022-09-06T04:57:13;9.07;;;8.00;;
2416;SDS011;1219;48.736;9.330;2022-09-06T04:59:39;14.87;;;8.53;;
2416;SDS011;1219;48.736;9.330;2022-09-06T05:02:05;9.07;;;8.27;;
2416;SDS011;1219;48.736;9.330;2022-09-06T05:04:31;8.60;;;7.67;;
2416;SDS011;1219;48.736;9.330;2022-09-06T05:07:05;9.33;;;8.20;;
2416;SDS011;1219;48.736;9.330;2022-09-06T05:09:31;9.07;;;8.27;;
2416;SDS011;1219;48.736;9.330;2022-09-06T05:11:57;9.13;;;8.17;;
2416;SDS011;1219;48.736;9.330;2022-09-06T05:14:24;9.33;;;7.93;;
2416;SDS011;1219;48.736;9.330;2022-09-06T05:16:50;8.90;;;8.00;;
2416;SDS011;1219;48.736;9.330;2022-09-06T05:19:16;8.97;;;7.53;;
2416;SDS011;1219;48.736;9.330;2022-09-06T05:21:43;8.43;;;7.73;;
2416;SDS011;1219;48.736;9.330;2022-09-06T05:24:08;8.70;;;7.80;;
2416;SDS011;1219;48.736;9.330;2022-09-06T05:26:35;8.63;;;7.93;;
2416;SDS011;1219;48.736;9.330;2022-09-06T05:29:00;8.70;;;7.90;;
2416;SDS011;1219;48.736;9.330;2022-09-06T05:31:27;8.50;;;7.70;;
2416;SDS011;1219;48.736;9.330;2022-09-06T05:33:54;8.80;;;8.00;;
2416;SDS011;1219;48.736;9.330;2022-09-06T05:36:20;11.33;;;8.50;;
2416;SDS011;1219;48.736;9.330;2022-09-06T05:38:48;8.07;;;7.37;;
2416;SDS011;1219;48.736;9.330;2022-09-06T05:41:14;9.57;;;8.67;;
2416;SDS011;1219;48.736;9.330;2022-09-06T05:43:40;10.23;;;8.87;;
2416;SDS011;1219;48.736;9.330;2022-09-06T05:46:06;15.20;;;8.97;;
2416;SDS011;1219;48.736;9.330;2022-09-06T05:48:32;8.80;;;7.60;;
2416;SDS011;1219;48.736;9.330;2022-09-06T05:50:59;9.10;;;8.27;;
2416;SDS011;1219;48.736;9.330;2022-09-06T05:53:25;9.10;;;8.20;;
2416;SDS011;1219;48.736;9.330;2022-09-06T05:55:51;8.93;;;8.13;;
2416;SDS011;1219;48.736;9.330;2022-09-06T05:58:17;8.23;;;7.63;;
2416;SDS011;1219;48.736;9.330;2022-09-06T06:00:43;11.60;;;8.23;;
2416;SDS011;1219;48.736;9.330;2022-09-06T06:03:09;9.47;;;8.47;;
2416;SDS011;1219;48.736;9.330;2022-09-06T06:05:35;9.43;;;8.43;;
2416;SDS011;1219;48.736;9.330;2022-09-06T06:08:01;9.23;;;8.33;;
2416;SDS011;1219;48.736;9.330;2022-09-06T06:10:27;8.73;;;7.50;;
2416;SDS011;1219;48.736;9.330;2022-09-06T06:12:53;8.57;;;7.87;;
2416;SDS011;1219;48.736;9.330;2022-09-06T06:15:21;10.17;;;8.97;;
2416;SDS011;1219;48.736;9.330;2022-09-06T06:17:47;10.53;;;8.07;;
2416;SDS011;1219;48.736;9.330;2022-09-06T06:20:13;10.20;;;8.23;;
2416;SDS011;1219;48.736;9.330;2022-09-06T06:22:39;10.23;;;8.63;;
2416;SDS011;1219;48.736;9.330;2022-09-06T06:25:05;9.10;;;8.30;;
2416;SDS011;1219;48.736;9.330;2022-09-06T06:27:31;8.80;;;8.10;;
2416;SDS011;1219;48.736;9.330;2022-09-06T06:29:58;9.47;;;8.50;;
2416;SDS011;1219;48.736;9.330;2022-09-06T06:32:24;9.17;;;8.27;;
2416;SDS011;1219;48.736;9.330;2022-09-06T06:34:50;9.43;;;8.50;;
2416;SDS011;1219;48.736;9.330;2022-09-06T06:37:16;9.10;;;7.70;;
2416;SDS011;1219;48.736;9.330;2022-09-06T06:39:42;11.33;;;9.40;;
2416;SDS011;1219;48.736;9.330;2022-09-06T06:42:08;9.13;;;8.20;;
2416;SDS011;1219;48.736;9.330;2022-09-06T06:44:34;11.50;;;8.57;;
2416;SDS011;1219;48.736;9.330;2022-09-06T06:47:00;10.10;;;9.20;;
2416;SDS011;1219;48.736;9.330;2022-09-06T06:49:27;9.83;;;8.67;;
2416;SDS011;1219;48.736;9.330;2022-09-06T06:51:53;9.97;;;8.80;;
2416;SDS011;1219;48.736;9.330;2022-09-06T06:54:19;9.47;;;8.57;;
2416;SDS011;1219;48.736;9.330;2022-09-06T06:56:45;14.60;;;7.73;;
2416;SDS011;1219;48.736;9.330;2022-09-06T06:59:11;9.20;;;8.40;;
2416;SDS011;1219;48.736;9.330;2022-09-06T07:01:37;9.30;;;8.40;;
2416;SDS011;1219;48.736;9.330;2022-09-06T07:04:03;9.20;;;8.30;;
2416;SDS011;1219;48.736;9.330;2022-09-06T07:06:30;9.90;;;8.83;;
2416;SDS011;1219;48.736;9.330;2022-09-06T07:08:56;8.37;;;7.77;;
2416;SDS011;1219;48.736;9.330;2022-09-06T07:11:22;10.47;;;7.80;;
2416;SDS011;1219;48.736;9.330;2022-09-06T07:13:48;8.27;;;7.60;;
2416;SDS011;1219;48.736;9.330;2022-09-06T07:16:16;7.53;;;6.70;;
2416;SDS011;1219;48.736;9.330;2022-09-06T07:18:42;8.23;;;7.53;;
2416;SDS011;1219;48.736;9.330;2022-09-06T07:21:10;8.43;;;7.73;;
2416;SDS011;1219;48.736;9.330;2022-09-06T07:23:37;7.90;;;7.17;;
2416;SDS011;1219;48.736;9.330;2022-09-06T07:26:03;7.10;;;6.40;;
2416;SDS011;1219;48.736;9.330;2022-09-06T07:28:29;7.53;;;6.93;;
2416;SDS011;1219;48.736;9.330;2022-09-06T07:30:55;9.90;;;6.63;;
2416;SDS011;1219;48.736;9.330;2022-09-06T07:33:22;7.33;;;6.03;;
2416;SDS011;1219;48.736;9.330;2022-09-06T07:35:55;6.83;;;6.23;;
2416;SDS011;1219;48.736;9.330;2022-09-06T07:38:21;7.40;;;6.87;;
2416;SDS011;1219;48.736;9.330;2022-09-06T07:40:57;9.80;;;7.00;;
2416;SDS011;1219;48.736;9.330;2022-09-06T07:43:24;7.20;;;6.27;;
2416;SDS011;1219;48.736;9.330;2022-09-06T07:46:04;8.17;;;7.13;;
2416;SDS011;1219;48.736;9.330;2022-09-06T07:48:31;8.30;;;7.63;;
2416;SDS011;1219;48.736;9.330;2022-09-06T07:53:33;9.83;;;7.10;;
2416;SDS011;1219;48.736;9.330;2022-09-06T07:55:59;10.97;;;7.73;;
2416;SDS011;1219;48.736;9.330;2022-09-06T07:58:26;7.00;;;6.40;;
2416;SDS011;1219;48.736;9.330;2022-09-06T08:00:53;8.60;;;6.87;;
2416;SDS011;1219;48.736;9.330;2022-09-06T08:03:18;7.73;;;6.60;;
2416;SDS011;1219;48.736;9.330;2022-09-06T08:05:47;5.70;;;5.20;;
2416;SDS011;1219;48.736;9.330;2022-09-06T08:08:14;6.20;;;5.60;;
2416;SDS011;1219;48.736;9.330;2022-09-06T08:10:40;5.70;;;5.30;;
2416;SDS011;1219;48.736;9.330;2022-09-06T08:13:06;6.37;;;5.77;;
2416;SDS011;1219;48.736;9.330;2022-09-06T08:15:32;5.10;;;4.70;;
2416;SDS011;1219;48.736;9.330;2022-09-06T08:17:58;6.00;;;5.50;;
2416;SDS011;1219;48.736;9.330;2022-09-06T08:20:24;5.47;;;4.97;;
2416;SDS011;1219;48.736;9.330;2022-09-06T08:22:49;6.70;;;5.60;;
2416;SDS011;1219;48.736;9.330;2022-09-06T08:25:15;7.10;;;5.63;;
2416;SDS011;1219;48.736;9.330;2022-09-06T08:27:41;6.03;;;5.43;;
2416;SDS011;1219;48.736;9.330;2022-09-06T08:30:07;6.77;;;5.70;;
2416;SDS011;1219;48.736;9.330;2022-09-06T08:32:34;5.40;;;5.00;;
2416;SDS011;1219;48.736;9.330;2022-09-06T08:35:02;8.03;;;6.03;;
2416;SDS011;1219;48.736;9.330;2022-09-06T08:37:28;6.90;;;5.40;;
2416;SDS011;1219;48.736;9.330;2022-09-06T08:39:54;7.00;;;5.07;;
2416;SDS011;1219;48.736;9.330;2022-09-06T08:42:20;9.40;;;6.00;;
2416;SDS011;1219;48.736;9.330;2022-09-06T08:44:47;6.33;;;5.23;;
2416;SDS011;1219;48.736;9.330;2022-09-06T08:47:15;5.40;;;5.00;;
2416;SDS011;1219;48.736;9.330;2022-09-06T08:49:42;7.30;;;5.13;;
2416;SDS011;1219;48.736;9.330;2022-09-06T08:52:19;5.33;;;4.90;;
2416;SDS011;1219;48.736;9.330;2022-09-06T08:57:29;6.50;;;5.20;;
2416;SDS011;1219;48.736;9.330;2022-09-06T08:59:58;5.70;;;5.20;;
2416;SDS011;1219;48.736;9.330;2022-09-06T09:02:25;4.40;;;4.10;;
2416;SDS011;1219;48.736;9.330;2022-09-06T09:04:58;4.37;;;4.07;;
2416;SDS011;1219;48.736;9.330;2022-09-06T09:09:51;4.87;;;4.57;;
2416;SDS011;1219;48.736;9.330;2022-09-06T09:12:18;5.47;;;5.00;;
2416;SDS011;1219;48.736;9.330;2022-09-06T09:14:46;8.73;;;4.30;;
2416;SDS011;1219;48.736;9.330;2022-09-06T09:17:15;4.93;;;4.53;;
2416;SDS011;1219;48.736;9.330;2022-09-06T09:19:44;5.50;;;4.27;;
2416;SDS011;1219;48.736;9.330;2022-09-06T09:22:11;7.30;;;4.40;;
2416;SDS011;1219;48.736;9.330;2022-09-06T09:24:38;4.20;;;3.80;;
2416;SDS011;1219;48.736;9.330;2022-09-06T09:27:05;4.90;;;4.43;;
2416;SDS011;1219;48.736;9.330;2022-09-06T09:29:54;4.30;;;4.00;;
2416;SDS011;1219;48.736;9.330;2022-09-06T09:32:40;4.60;;;4.20;;
2416;SDS011;1219;48.736;9.330;2022-09-06T09:37:41;4.97;;;4.20;;
2416;SDS011;1219;48.736;9.330;2022-09-06T09:40:15;5.07;;;4.27;;
2416;SDS011;1219;48.736;9.330;2022-09-06T09:42:42;6.77;;;4.50;;
2416;SDS011;1219;48.736;9.330;2022-09-06T09:45:42;4.20;;;3.90;;
2416;SDS011;1219;48.736;9.330;2022-09-06T09:50:46;4.27;;;3.87;;
2416;SDS011;1219;48.736;9.330;2022-09-06T09:53:13;4.27;;;3.97;;
2416;SDS011;1219;48.736;9.330;2022-09-06T09:55:39;5.77;;;4.10;;
2416;SDS011;1219;48.736;9.330;2022-09-06T09:58:06;4.40;;;4.00;;
2416;SDS011;1219;48.736;9.330;2022-09-06T10:00:40;6.00;;;4.10;;
2416;SDS011;1219;48.736;9.330;2022-09-06T10:03:14;4.00;;;3.70;;
2416;SDS011;1219;48.736;9.330;2022-09-06T10:05:41;5.57;;;4.20;;
2416;SDS011;1219;48.736;9.330;2022-09-06T10:08:09;4.63;;;4.20;;
2416;SDS011;1219;48.736;9.330;2022-09-06T10:10:39;4.23;;;3.83;;
2416;SDS011;1219;48.736;9.330;2022-09-06T10:13:20;5.30;;;3.30;;
2416;SDS011;1219;48.736;9.330;2022-09-06T10:15:46;4.53;;;3.70;;
2416;SDS011;1219;48.736;9.330;2022-09-06T10:18:14;3.67;;;3.47;;
2416;SDS011;1219;48.736;9.330;2022-09-06T10:26:01;4.73;;;3.30;;
2416;SDS011;1219;48.736;9.330;2022-09-06T10:28:30;5.17;;;3.43;;
2416;SDS011;1219;48.736;9.330;2022-09-06T10:36:12;7.87;;;3.83;;
2416;SDS011;1219;48.736;9.330;2022-09-06T10:38:53;8.23;;;3.97;;
2416;SDS011;1219;48.736;9.330;2022-09-06T10:46:33;5.37;;;3.50;;
2416;SDS011;1219;48.736;9.330;2022-09-06T10:49:00;3.77;;;3.07;;
2416;SDS011;1219;48.736;9.330;2022-09-06T10:51:40;3.10;;;2.43;;
2416;SDS011;1219;48.736;9.330;2022-09-06T10:54:13;4.63;;;3.30;;
2416;SDS011;1219;48.736;9.330;2022-09-06T10:59:12;3.73;;;3.43;;
2416;SDS011;1219;48.736;9.330;2022-09-06T11:04:36;4.73;;;2.90;;
2416;SDS011;1219;48.736;9.330;2022-09-06T11:07:09;4.93;;;3.17;;
2416;SDS011;1219;48.736;9.330;2022-09-06T11:09:38;5.30;;;3.57;;
2416;SDS011;1219;48.736;9.330;2022-09-06T11:12:21;5.13;;;3.37;;
2416;SDS011;1219;48.736;9.330;2022-09-06T11:14:51;3.90;;;3.50;;
2416;SDS011;1219;48.736;9.330;2022-09-06T11:20:24;9.57;;;3.70;;
2416;SDS011;1219;48.736;9.330;2022-09-06T11:28:06;9.50;;;3.60;;
2416;SDS011;1219;48.736;9.330;2022-09-06T11:30:34;4.10;;;3.37;;
2416;SDS011;1219;48.736;9.330;2022-09-06T11:33:12;4.80;;;3.03;;
2416;SDS011;1219;48.736;9.330;2022-09-06T11:35:42;4.03;;;3.63;;
2416;SDS011;1219;48.736;9.330;2022-09-06T11:40:35;3.70;;;2.97;;
2416;SDS011;1219;48.736;9.330;2022-09-06T11:50:58;10.23;;;3.60;;
2416;SDS011;1219;48.736;9.330;2022-09-06T11:53:26;7.90;;;3.10;;
2416;SDS011;1219;48.736;9.330;2022-09-06T11:58:27;6.80;;;3.30;;
2416;SDS011;1219;48.736;9.330;2022-09-06T12:08:46;4.70;;;3.13;;
2416;SDS011;1219;48.736;9.330;2022-09-06T12:13:53;3.50;;;3.10;;
2416;SDS011;1219;48.736;9.330;2022-09-06T12:16:20;3.33;;;3.03;;
2416;SDS011;1219;48.736;9.330;2022-09-06T12:23:57;3.33;;;2.97;;
2416;SDS011;1219;48.736;9.330;2022-09-06T12:29:10;9.77;;;3.27;;
2416;SDS011;1219;48.736;9.330;2022-09-06T12:31:37;4.10;;;2.67;;
2416;SDS011;1219;48.736;9.330;2022-09-06T12:34:11;7.53;;;3.30;;
2416;SDS011;1219;48.736;9.330;2022-09-06T12:36:45;4.40;;;3.80;;
2416;SDS011;1219;48.736;9.330;2022-09-06T12:39:12;5.20;;;3.30;;
2416;SDS011;1219;48.736;9.330;2022-09-06T12:41:38;3.93;;;3.30;;
2416;SDS011;1219;48.736;9.330;2022-09-06T12:44:05;5.30;;;3.20;;
2416;SDS011;1219;48.736;9.330;2022-09-06T12:46:32;6.77;;;3.40;;
2416;SDS011;1219;48.736;9.330;2022-09-06T12:49:03;3.30;;;3.00;;
2416;SDS011;1219;48.736;9.330;2022-09-06T12:51:30;5.43;;;3.27;;
2416;SDS011;1219;48.736;9.330;2022-09-06T12:53:57;3.87;;;3.23;;
2416;SDS011;1219;48.736;9.330;2022-09-06T12:56:23;8.33;;;4.00;;
2416;SDS011;1219;48.736;9.330;2022-09-06T12:58:50;4.70;;;3.10;;
2416;SDS011;1219;48.736;9.330;2022-09-06T13:04:08;7.63;;;3.43;;
2416;SDS011;1219;48.736;9.330;2022-09-06T13:06:33;2.83;;;2.50;;
2416;SDS011;1219;48.736;9.330;2022-09-06T13:09:01;4.70;;;3.00;;
2416;SDS011;1219;48.736;9.330;2022-09-06T13:11:31;5.27;;;3.03;;
2416;SDS011;1219;48.736;9.330;2022-09-06T13:13:59;3.97;;;2.90;;
2416;SDS011;1219;48.736;9.330;2022-09-06T13:16:26;9.57;;;3.43;;
2416;SDS011;1219;48.736;9.330;2022-09-06T13:18:53;5.70;;;3.00;;
2416;SDS011;1219;48.736;9.330;2022-09-06T13:21:26;8.37;;;3.53;;
2416;SDS011;1219;48.736;9.330;2022-09-06T13:23:53;3.57;;;2.60;;
2416;SDS011;1219;48.736;9.330;2022-09-06T13:26:38;4.27;;;3.57;;
2416;SDS011;1219;48.736;9.330;2022-09-06T13:29:23;5.10;;;3.97;;
2416;SDS011;1219;48.736;9.330;2022-09-06T13:31:50;3.43;;;3.03;;
2416;SDS011;1219;48.736;9.330;2022-09-06T13:36:50;3.80;;;2.83;;
2416;SDS011;1219;48.736;9.330;2022-09-06T13:41:55;3.70;;;3.40;;
2416;SDS011;1219;48.736;9.330;2022-09-06T13:44:31;4.00;;;3.50;;
2416;SDS011;1219;48.736;9.330;2022-09-06T13:46:57;6.50;;;3.40;;
2416;SDS011;1219;48.736;9.330;2022-09-06T13:49:23;4.30;;;3.30;;
2416;SDS011;1219;48.736;9.330;2022-09-06T13:51:53;6.63;;;4.03;;
2416;SDS011;1219;48.736;9.330;2022-09-06T13:54:20;4.67;;;3.33;;
2416;SDS011;1219;48.736;9.330;2022-09-06T13:56:46;5.27;;;2.90;;
2416;SDS011;1219;48.736;9.330;2022-09-06T13:59:13;5.30;;;3.20;;
2416;SDS011;1219;48.736;9.330;2022-09-06T14:01:40;4.10;;;3.40;;
2416;SDS011;1219;48.736;9.330;2022-09-06T14:04:07;4.83;;;3.00;;
2416;SDS011;1219;48.736;9.330;2022-09-06T14:06:34;3.63;;;2.90;;
2416;SDS011;1219;48.736;9.330;2022-09-06T14:09:01;4.87;;;2.90;;
2416;SDS011;1219;48.736;9.330;2022-09-06T14:11:27;4.67;;;2.83;;
2416;SDS011;1219;48.736;9.330;2022-09-06T14:13:53;3.60;;;3.10;;
2416;SDS011;1219;48.736;9.330;2022-09-06T14:16:19;3.80;;;3.13;;
2416;SDS011;1219;48.736;9.330;2022-09-06T14:18:45;4.20;;;3.57;;
2416;SDS011;1219;48.736;9.330;2022-09-06T14:21:11;5.30;;;2.87;;
2416;SDS011;1219;48.736;9.330;2022-09-06T14:23:37;3.77;;;3.07;;
2416;SDS011;1219;48.736;9.330;2022-09-06T14:26:03;7.00;;;2.80;;
2416;SDS011;1219;48.736;9.330;2022-09-06T14:28:30;6.93;;;2.87;;
2416;SDS011;1219;48.736;9.330;2022-09-06T14:30:57;6.10;;;2.67;;
2416;SDS011;1219;48.736;9.330;2022-09-06T14:33:23;4.17;;;2.90;;
2416;SDS011;1219;48.736;9.330;2022-09-06T14:35:49;3.90;;;2.80;;
2416;SDS011;1219;48.736;9.330;2022-09-06T14:38:16;5.43;;;2.80;;
2416;SDS011;1219;48.736;9.330;2022-09-06T14:40:42;5.30;;;2.90;;
2416;SDS011;1219;48.736;9.330;2022-09-06T14:43:08;2.57;;;2.40;;
2416;SDS011;1219;48.736;9.330;2022-09-06T14:45:34;3.27;;;2.30;;
2416;SDS011;1219;48.736;9.330;2022-09-06T14:48:00;3.10;;;2.80;;
2416;SDS011;1219;48.736;9.330;2022-09-06T14:50:27;3.90;;;2.97;;
2416;SDS011;1219;48.736;9.330;2022-09-06T14:52:53;4.50;;;2.20;;
2416;SDS011;1219;48.736;9.330;2022-09-06T14:55:19;4.63;;;2.73;;
2416;SDS011;1219;48.736;9.330;2022-09-06T14:57:45;5.90;;;2.87;;
2416;SDS011;1219;48.736;9.330;2022-09-06T15:00:11;4.90;;;2.33;;
2416;SDS011;1219;48.736;9.330;2022-09-06T15:02:37;4.13;;;2.80;;
2416;SDS011;1219;48.736;9.330;2022-09-06T15:05:03;5.13;;;3.10;;
2416;SDS011;1219;48.736;9.330;2022-09-06T15:07:29;6.47;;;2.97;;
2416;SDS011;1219;48.736;9.330;2022-09-06T15:09:56;5.73;;;3.27;;
2416;SDS011;1219;48.736;9.330;2022-09-06T15:12:22;4.03;;;3.03;;
2416;SDS011;1219;48.736;9.330;2022-09-06T15:14:48;3.13;;;2.83;;
2416;SDS011;1219;48.736;9.330;2022-09-06T15:17:14;5.27;;;3.23;;
2416;SDS011;1219;48.736;9.330;2022-09-06T15:19:40;3.10;;;2.40;;
2416;SDS011;1219;48.736;9.330;2022-09-06T15:22:06;6.30;;;3.40;;
2416;SDS011;1219;48.736;9.330;2022-09-06T15:24:32;7.90;;;3.53;;
2416;SDS011;1219;48.736;9.330;2022-09-06T15:26:58;5.27;;;3.77;;
2416;SDS011;1219;48.736;9.330;2022-09-06T15:29:24;5.40;;;3.57;;
2416;SDS011;1219;48.736;9.330;2022-09-06T15:31:51;8.90;;;4.13;;
2416;SDS011;1219;48.736;9.330;2022-09-06T15:34:20;3.67;;;3.30;;
2416;SDS011;1219;48.736;9.330;2022-09-06T15:36:49;3.80;;;3.37;;
2416;SDS011;1219;48.736;9.330;2022-09-06T15:39:15;4.43;;;3.60;;
2416;SDS011;1219;48.736;9.330;2022-09-06T15:41:41;5.27;;;3.67;;
2416;SDS011;1219;48.736;9.330;2022-09-06T15:44:11;4.97;;;3.10;;
2416;SDS011;1219;48.736;9.330;2022-09-06T15:49:11;5.43;;;3.07;;
2416;SDS011;1219;48.736;9.330;2022-09-06T15:51:37;7.20;;;3.07;;
2416;SDS011;1219;48.736;9.330;2022-09-06T15:54:05;3.87;;;3.50;;
2416;SDS011;1219;48.736;9.330;2022-09-06T15:56:34;5.73;;;3.73;;
2416;SDS011;1219;48.736;9.330;2022-09-06T15:59:00;4.63;;;3.47;;
2416;SDS011;1219;48.736;9.330;2022-09-06T16:01:26;9.37;;;3.07;;
2416;SDS011;1219;48.736;9.330;2022-09-06T16:03:56;8.40;;;4.00;;
2416;SDS011;1219;48.736;9.330;2022-09-06T16:06:30;7.30;;;3.30;;
2416;SDS011;1219;48.736;9.330;2022-09-06T16:09:01;5.80;;;3.20;;
2416;SDS011;1219;48.736;9.330;2022-09-06T16:11:28;3.63;;;3.23;;
2416;SDS011;1219;48.736;9.330;2022-09-06T16:13:57;4.30;;;3.40;;
2416;SDS011;1219;48.736;9.330;2022-09-06T16:16:23;6.00;;;5.40;;
2416;SDS011;1219;48.736;9.330;2022-09-06T16:18:50;7.47;;;4.33;;
2416;SDS011;1219;48.736;9.330;2022-09-06T16:21:19;8.37;;;5.83;;
2416;SDS011;1219;48.736;9.330;2022-09-06T16:23:55;12.53;;;6.73;;
2416;SDS011;1219;48.736;9.330;2022-09-06T16:26:21;7.47;;;5.10;;
2416;SDS011;1219;48.736;9.330;2022-09-06T16:28:48;4.47;;;3.77;;
2416;SDS011;1219;48.736;9.330;2022-09-06T16:31:14;8.90;;;6.90;;
2416;SDS011;1219;48.736;9.330;2022-09-06T16:33:42;8.83;;;5.80;;
2416;SDS011;1219;48.736;9.330;2022-09-06T16:36:10;6.80;;;6.07;;
2416;SDS011;1219;48.736;9.330;2022-09-06T16:38:38;6.23;;;5.67;;
2416;SDS011;1219;48.736;9.330;2022-09-06T16:41:09;6.73;;;3.30;;
2416;SDS011;1219;48.736;9.330;2022-09-06T16:43:35;8.90;;;5.70;;
2416;SDS011;1219;48.736;9.330;2022-09-06T16:46:02;6.90;;;3.60;;
2416;SDS011;1219;48.736;9.330;2022-09-06T16:48:28;6.60;;;2.90;;
2416;SDS011;1219;48.736;9.330;2022-09-06T16:50:54;7.90;;;3.67;;
2416;SDS011;1219;48.736;9.330;2022-09-06T16:53:21;3.90;;;3.60;;
2416;SDS011;1219;48.736;9.330;2022-09-06T16:55:47;5.37;;;3.87;;
2416;SDS011;1219;48.736;9.330;2022-09-06T16:58:13;8.93;;;3.77;;
2416;SDS011;1219;48.736;9.330;2022-09-06T17:00:43;6.03;;;4.20;;